sensor_id;sensor_type;location;lat;lon;timestamp;P1;durP1;ratioP1;P2;durP2;ratioP2
35961;SDS011;22044;48.298;10.008;2022-11-15T00:01:25;5.00;;;4.00;;
35961;SDS011;22044;48.298;10.008;2022-11-15T00:04:29;5.07;;;4.23;;
35961;SDS011;22044;48.298;10.008;2022-11-15T00:07:33;7.23;;;3.70;;
35961;SDS011;22044;48.298;10.008;2022-11-15T00:10:38;3.97;;;3.53;;
35961;SDS011;22044;48.298;10.008;2022-11-15T00:13:44;4.10;;;3.47;;
35961;SDS011;22044;48.298;10.008;2022-11-15T00:16:48;4.77;;;3.57;;
35961;SDS011;22044;48.298;10.008;2022-11-15T00:19:52;4.97;;;3.50;;
35961;SDS011;22044;48.298;10.008;2022-11-15T00:22:57;5.47;;;4.13;;
35961;SDS011;22044;48.298;10.008;2022-11-15T00:26:01;4.53;;;3.90;;
35961;SDS011;22044;48.298;10.008;2022-11-15T00:29:07;5.17;;;4.33;;
35961;SDS011;22044;48.298;10.008;2022-11-15T00:32:11;8.03;;;4.67;;
35961;SDS011;22044;48.298;10.008;2022-11-15T00:35:15;9.07;;;4.80;;
35961;SDS011;22044;48.298;10.008;2022-11-15T00:38:20;6.63;;;5.03;;
35961;SDS011;22044;48.298;10.008;2022-11-15T00:41:25;8.47;;;5.07;;
35961;SDS011;22044;48.298;10.008;2022-11-15T00:44:30;8.03;;;5.23;;
35961;SDS011;22044;48.298;10.008;2022-11-15T00:47:35;6.70;;;5.00;;
35961;SDS011;22044;48.298;10.008;2022-11-15T00:50:39;7.77;;;5.20;;
35961;SDS011;22044;48.298;10.008;2022-11-15T00:53:44;7.70;;;5.87;;
35961;SDS011;22044;48.298;10.008;2022-11-15T00:56:48;8.07;;;6.00;;
35961;SDS011;22044;48.298;10.008;2022-11-15T00:59:54;8.23;;;5.97;;
35961;SDS011;22044;48.298;10.008;2022-11-15T01:02:59;7.33;;;6.00;;
35961;SDS011;22044;48.298;10.008;2022-11-15T01:06:03;8.37;;;6.77;;
35961;SDS011;22044;48.298;10.008;2022-11-15T01:09:08;9.23;;;6.63;;
35961;SDS011;22044;48.298;10.008;2022-11-15T01:12:12;7.03;;;6.00;;
35961;SDS011;22044;48.298;10.008;2022-11-15T01:15:18;10.43;;;6.60;;
35961;SDS011;22044;48.298;10.008;2022-11-15T01:18:23;9.80;;;5.87;;
35961;SDS011;22044;48.298;10.008;2022-11-15T01:21:27;8.10;;;5.47;;
35961;SDS011;22044;48.298;10.008;2022-11-15T01:24:32;6.87;;;5.10;;
35961;SDS011;22044;48.298;10.008;2022-11-15T01:27:36;6.30;;;4.60;;
35961;SDS011;22044;48.298;10.008;2022-11-15T01:30:42;6.33;;;5.00;;
35961;SDS011;22044;48.298;10.008;2022-11-15T01:33:47;5.50;;;4.40;;
35961;SDS011;22044;48.298;10.008;2022-11-15T01:36:52;5.77;;;4.73;;
35961;SDS011;22044;48.298;10.008;2022-11-15T01:39:56;7.00;;;4.33;;
35961;SDS011;22044;48.298;10.008;2022-11-15T01:46:30;4.53;;;4.13;;
35961;SDS011;22044;48.298;10.008;2022-11-15T01:49:38;6.77;;;4.30;;
35961;SDS011;22044;48.298;10.008;2022-11-15T01:52:46;5.20;;;4.30;;
35961;SDS011;22044;48.298;10.008;2022-11-15T01:55:51;4.90;;;3.70;;
35961;SDS011;22044;48.298;10.008;2022-11-15T01:58:56;5.37;;;4.40;;
35961;SDS011;22044;48.298;10.008;2022-11-15T02:02:03;5.90;;;4.23;;
35961;SDS011;22044;48.298;10.008;2022-11-15T02:05:08;6.87;;;4.10;;
35961;SDS011;22044;48.298;10.008;2022-11-15T02:08:12;4.47;;;4.07;;
35961;SDS011;22044;48.298;10.008;2022-11-15T02:11:22;5.27;;;4.00;;
35961;SDS011;22044;48.298;10.008;2022-11-15T02:14:26;5.90;;;4.03;;
35961;SDS011;22044;48.298;10.008;2022-11-15T02:17:39;4.57;;;3.83;;
35961;SDS011;22044;48.298;10.008;2022-11-15T02:21:06;6.87;;;4.33;;
35961;SDS011;22044;48.298;10.008;2022-11-15T02:31:48;5.03;;;4.10;;
35961;SDS011;22044;48.298;10.008;2022-11-15T02:35:00;4.47;;;3.87;;
35961;SDS011;22044;48.298;10.008;2022-11-15T02:38:16;4.60;;;4.03;;
35961;SDS011;22044;48.298;10.008;2022-11-15T02:41:27;5.07;;;4.17;;
35961;SDS011;22044;48.298;10.008;2022-11-15T02:44:38;4.07;;;3.30;;
35961;SDS011;22044;48.298;10.008;2022-11-15T02:47:47;4.17;;;3.77;;
35961;SDS011;22044;48.298;10.008;2022-11-15T02:50:55;5.73;;;3.83;;
35961;SDS011;22044;48.298;10.008;2022-11-15T02:53:59;6.17;;;4.10;;
35961;SDS011;22044;48.298;10.008;2022-11-15T02:57:05;4.47;;;4.00;;
35961;SDS011;22044;48.298;10.008;2022-11-15T03:00:16;7.50;;;4.30;;
35961;SDS011;22044;48.298;10.008;2022-11-15T03:03:40;7.03;;;4.10;;
35961;SDS011;22044;48.298;10.008;2022-11-15T03:06:53;6.47;;;4.28;;
35961;SDS011;22044;48.298;10.008;2022-11-15T03:10:05;4.70;;;4.00;;
35961;SDS011;22044;48.298;10.008;2022-11-15T03:13:19;6.43;;;4.20;;
35961;SDS011;22044;48.298;10.008;2022-11-15T03:16:30;6.00;;;4.53;;
35961;SDS011;22044;48.298;10.008;2022-11-15T03:19:43;8.17;;;5.23;;
35961;SDS011;22044;48.298;10.008;2022-11-15T03:22:49;5.67;;;4.10;;
35961;SDS011;22044;48.298;10.008;2022-11-15T03:25:55;5.07;;;3.93;;
35961;SDS011;22044;48.298;10.008;2022-11-15T03:29:03;7.00;;;4.40;;
35961;SDS011;22044;48.298;10.008;2022-11-15T03:32:12;5.90;;;4.30;;
35961;SDS011;22044;48.298;10.008;2022-11-15T03:35:23;4.77;;;3.50;;
35961;SDS011;22044;48.298;10.008;2022-11-15T03:38:29;5.70;;;3.63;;
35961;SDS011;22044;48.298;10.008;2022-11-15T03:41:37;4.37;;;3.60;;
35961;SDS011;22044;48.298;10.008;2022-11-15T03:44:48;4.80;;;3.73;;
35961;SDS011;22044;48.298;10.008;2022-11-15T03:47:58;4.30;;;3.90;;
35961;SDS011;22044;48.298;10.008;2022-11-15T03:51:07;8.30;;;4.20;;
35961;SDS011;22044;48.298;10.008;2022-11-15T03:54:12;5.07;;;4.50;;
35961;SDS011;22044;48.298;10.008;2022-11-15T03:57:16;8.17;;;3.80;;
35961;SDS011;22044;48.298;10.008;2022-11-15T04:00:21;5.10;;;3.63;;
35961;SDS011;22044;48.298;10.008;2022-11-15T04:03:25;5.40;;;4.07;;
35961;SDS011;22044;48.298;10.008;2022-11-15T04:06:31;4.73;;;4.23;;
35961;SDS011;22044;48.298;10.008;2022-11-15T04:09:36;5.60;;;3.80;;
35961;SDS011;22044;48.298;10.008;2022-11-15T04:13:01;7.37;;;4.00;;
35961;SDS011;22044;48.298;10.008;2022-11-15T04:16:06;5.43;;;4.40;;
35961;SDS011;22044;48.298;10.008;2022-11-15T04:19:10;4.93;;;4.20;;
35961;SDS011;22044;48.298;10.008;2022-11-15T04:22:33;6.47;;;4.77;;
35961;SDS011;22044;48.298;10.008;2022-11-15T04:25:56;5.33;;;4.33;;
35961;SDS011;22044;48.298;10.008;2022-11-15T04:29:02;7.20;;;4.53;;
35961;SDS011;22044;48.298;10.008;2022-11-15T04:32:24;9.73;;;5.60;;
35961;SDS011;22044;48.298;10.008;2022-11-15T04:35:29;7.77;;;6.07;;
35961;SDS011;22044;48.298;10.008;2022-11-15T04:38:35;7.50;;;5.30;;
35961;SDS011;22044;48.298;10.008;2022-11-15T04:41:40;7.93;;;5.23;;
35961;SDS011;22044;48.298;10.008;2022-11-15T04:44:44;7.57;;;5.37;;
35961;SDS011;22044;48.298;10.008;2022-11-15T04:47:49;9.73;;;5.57;;
35961;SDS011;22044;48.298;10.008;2022-11-15T04:50:53;7.67;;;5.43;;
35961;SDS011;22044;48.298;10.008;2022-11-15T04:53:59;8.17;;;5.67;;
35961;SDS011;22044;48.298;10.008;2022-11-15T04:57:03;8.80;;;5.83;;
35961;SDS011;22044;48.298;10.008;2022-11-15T05:00:08;6.30;;;5.37;;
35961;SDS011;22044;48.298;10.008;2022-11-15T05:03:14;7.07;;;5.37;;
35961;SDS011;22044;48.298;10.008;2022-11-15T05:06:50;7.97;;;4.80;;
35961;SDS011;22044;48.298;10.008;2022-11-15T05:09:56;6.10;;;4.23;;
35961;SDS011;22044;48.298;10.008;2022-11-15T05:13:01;7.50;;;4.50;;
35961;SDS011;22044;48.298;10.008;2022-11-15T05:16:05;5.57;;;4.83;;
35961;SDS011;22044;48.298;10.008;2022-11-15T05:19:10;6.93;;;4.57;;
35961;SDS011;22044;48.298;10.008;2022-11-15T05:22:14;8.83;;;4.67;;
35961;SDS011;22044;48.298;10.008;2022-11-15T05:25:20;6.83;;;5.07;;
35961;SDS011;22044;48.298;10.008;2022-11-15T05:28:25;5.97;;;5.00;;
35961;SDS011;22044;48.298;10.008;2022-11-15T05:31:29;5.60;;;4.60;;
35961;SDS011;22044;48.298;10.008;2022-11-15T05:34:34;4.60;;;3.87;;
35961;SDS011;22044;48.298;10.008;2022-11-15T05:37:38;6.50;;;5.50;;
35961;SDS011;22044;48.298;10.008;2022-11-15T05:40:44;7.10;;;5.37;;
35961;SDS011;22044;48.298;10.008;2022-11-15T05:43:48;12.53;;;5.90;;
35961;SDS011;22044;48.298;10.008;2022-11-15T05:46:54;8.03;;;5.43;;
35961;SDS011;22044;48.298;10.008;2022-11-15T05:49:59;9.87;;;5.53;;
35961;SDS011;22044;48.298;10.008;2022-11-15T05:53:04;9.83;;;6.67;;
35961;SDS011;22044;48.298;10.008;2022-11-15T05:56:10;9.87;;;5.87;;
35961;SDS011;22044;48.298;10.008;2022-11-15T05:59:16;8.43;;;6.13;;
35961;SDS011;22044;48.298;10.008;2022-11-15T06:02:21;9.30;;;5.20;;
35961;SDS011;22044;48.298;10.008;2022-11-15T06:05:25;6.93;;;6.07;;
35961;SDS011;22044;48.298;10.008;2022-11-15T06:08:30;7.30;;;6.40;;
35961;SDS011;22044;48.298;10.008;2022-11-15T06:11:36;6.37;;;4.93;;
35961;SDS011;22044;48.298;10.008;2022-11-15T06:14:40;5.27;;;4.70;;
35961;SDS011;22044;48.298;10.008;2022-11-15T06:17:45;5.93;;;4.90;;
35961;SDS011;22044;48.298;10.008;2022-11-15T06:20:49;6.50;;;5.77;;
35961;SDS011;22044;48.298;10.008;2022-11-15T06:23:54;5.97;;;5.20;;
35961;SDS011;22044;48.298;10.008;2022-11-15T06:27:00;6.33;;;4.17;;
35961;SDS011;22044;48.298;10.008;2022-11-15T06:30:05;4.83;;;4.07;;
35961;SDS011;22044;48.298;10.008;2022-11-15T06:33:10;4.87;;;4.30;;
35961;SDS011;22044;48.298;10.008;2022-11-15T06:36:14;5.83;;;4.23;;
35961;SDS011;22044;48.298;10.008;2022-11-15T06:39:23;7.00;;;4.77;;
35961;SDS011;22044;48.298;10.008;2022-11-15T06:42:28;8.03;;;4.83;;
35961;SDS011;22044;48.298;10.008;2022-11-15T06:45:33;6.37;;;5.03;;
35961;SDS011;22044;48.298;10.008;2022-11-15T06:48:37;6.53;;;4.70;;
35961;SDS011;22044;48.298;10.008;2022-11-15T06:51:42;9.40;;;6.30;;
35961;SDS011;22044;48.298;10.008;2022-11-15T06:54:46;10.50;;;6.23;;
35961;SDS011;22044;48.298;10.008;2022-11-15T06:57:52;9.47;;;6.30;;
35961;SDS011;22044;48.298;10.008;2022-11-15T07:00:58;18.10;;;11.00;;
35961;SDS011;22044;48.298;10.008;2022-11-15T07:04:03;12.20;;;7.70;;
35961;SDS011;22044;48.298;10.008;2022-11-15T07:07:07;11.33;;;7.80;;
35961;SDS011;22044;48.298;10.008;2022-11-15T07:10:12;17.23;;;11.13;;
35961;SDS011;22044;48.298;10.008;2022-11-15T07:13:18;11.03;;;7.67;;
35961;SDS011;22044;48.298;10.008;2022-11-15T07:16:23;13.83;;;7.73;;
35961;SDS011;22044;48.298;10.008;2022-11-15T07:19:27;15.47;;;6.93;;
35961;SDS011;22044;48.298;10.008;2022-11-15T07:22:31;16.53;;;9.13;;
35961;SDS011;22044;48.298;10.008;2022-11-15T07:25:36;16.53;;;8.33;;
35961;SDS011;22044;48.298;10.008;2022-11-15T07:28:42;13.43;;;7.87;;
35961;SDS011;22044;48.298;10.008;2022-11-15T07:31:46;11.40;;;6.77;;
35961;SDS011;22044;48.298;10.008;2022-11-15T07:34:51;29.07;;;7.53;;
35961;SDS011;22044;48.298;10.008;2022-11-15T07:37:56;10.33;;;6.90;;
35961;SDS011;22044;48.298;10.008;2022-11-15T07:41:02;9.33;;;6.63;;
35961;SDS011;22044;48.298;10.008;2022-11-15T07:44:09;9.53;;;7.17;;
35961;SDS011;22044;48.298;10.008;2022-11-15T07:47:13;13.20;;;7.83;;
35961;SDS011;22044;48.298;10.008;2022-11-15T07:50:18;11.10;;;8.20;;
35961;SDS011;22044;48.298;10.008;2022-11-15T07:53:23;21.73;;;14.53;;
35961;SDS011;22044;48.298;10.008;2022-11-15T07:56:28;38.57;;;23.87;;
35961;SDS011;22044;48.298;10.008;2022-11-15T07:59:34;26.57;;;17.87;;
35961;SDS011;22044;48.298;10.008;2022-11-15T08:02:38;31.73;;;15.87;;
35961;SDS011;22044;48.298;10.008;2022-11-15T08:05:43;30.50;;;17.60;;
35961;SDS011;22044;48.298;10.008;2022-11-15T08:08:53;18.27;;;12.57;;
35961;SDS011;22044;48.298;10.008;2022-11-15T08:11:57;14.87;;;8.93;;
35961;SDS011;22044;48.298;10.008;2022-11-15T08:15:04;10.50;;;8.80;;
35961;SDS011;22044;48.298;10.008;2022-11-15T08:18:10;10.93;;;8.53;;
35961;SDS011;22044;48.298;10.008;2022-11-15T08:21:17;9.57;;;8.20;;
35961;SDS011;22044;48.298;10.008;2022-11-15T08:24:23;14.83;;;10.57;;
35961;SDS011;22044;48.298;10.008;2022-11-15T08:27:28;16.47;;;10.73;;
35961;SDS011;22044;48.298;10.008;2022-11-15T08:30:35;8.80;;;6.40;;
35961;SDS011;22044;48.298;10.008;2022-11-15T08:33:44;5.57;;;4.93;;
35961;SDS011;22044;48.298;10.008;2022-11-15T08:36:48;7.43;;;5.20;;
35961;SDS011;22044;48.298;10.008;2022-11-15T08:39:53;5.37;;;4.80;;
35961;SDS011;22044;48.298;10.008;2022-11-15T08:42:57;5.00;;;4.60;;
35961;SDS011;22044;48.298;10.008;2022-11-15T08:46:07;5.22;;;4.70;;
35961;SDS011;22044;48.298;10.008;2022-11-15T08:49:15;4.82;;;4.32;;
35961;SDS011;22044;48.298;10.008;2022-11-15T08:52:19;5.68;;;5.18;;
35961;SDS011;22044;48.298;10.008;2022-11-15T08:55:24;5.75;;;4.10;;
35961;SDS011;22044;48.298;10.008;2022-11-15T08:58:28;4.80;;;4.40;;
35961;SDS011;22044;48.298;10.008;2022-11-15T09:01:34;4.90;;;4.40;;
35961;SDS011;22044;48.298;10.008;2022-11-15T09:04:39;4.47;;;4.10;;
35961;SDS011;22044;48.298;10.008;2022-11-15T09:07:44;5.13;;;4.57;;
35961;SDS011;22044;48.298;10.008;2022-11-15T09:10:48;6.40;;;5.80;;
35961;SDS011;22044;48.298;10.008;2022-11-15T09:13:53;6.53;;;5.82;;
35961;SDS011;22044;48.298;10.008;2022-11-15T09:16:59;7.30;;;6.70;;
35961;SDS011;22044;48.298;10.008;2022-11-15T09:20:04;6.40;;;5.83;;
35961;SDS011;22044;48.298;10.008;2022-11-15T09:23:09;5.97;;;5.23;;
35961;SDS011;22044;48.298;10.008;2022-11-15T09:26:13;9.10;;;6.50;;
35961;SDS011;22044;48.298;10.008;2022-11-15T09:29:18;9.30;;;7.60;;
35961;SDS011;22044;48.298;10.008;2022-11-15T09:32:23;7.30;;;6.60;;
35961;SDS011;22044;48.298;10.008;2022-11-15T09:35:31;8.10;;;7.10;;
35961;SDS011;22044;48.298;10.008;2022-11-15T09:38:35;7.97;;;7.17;;
35961;SDS011;22044;48.298;10.008;2022-11-15T09:41:48;9.20;;;7.60;;
35961;SDS011;22044;48.298;10.008;2022-11-15T09:45:09;11.23;;;8.60;;
35961;SDS011;22044;48.298;10.008;2022-11-15T09:48:39;14.10;;;9.33;;
35961;SDS011;22044;48.298;10.008;2022-11-15T09:51:49;10.20;;;9.10;;
35961;SDS011;22044;48.298;10.008;2022-11-15T09:54:38;14.80;;;9.67;;
35961;SDS011;22044;48.298;10.008;2022-11-15T09:57:30;15.37;;;10.90;;
35961;SDS011;22044;48.298;10.008;2022-11-15T10:00:24;10.63;;;9.43;;
35961;SDS011;22044;48.298;10.008;2022-11-15T10:03:16;10.57;;;9.17;;
35961;SDS011;22044;48.298;10.008;2022-11-15T10:06:21;11.27;;;9.37;;
35961;SDS011;22044;48.298;10.008;2022-11-15T10:09:11;10.73;;;9.33;;
35961;SDS011;22044;48.298;10.008;2022-11-15T10:12:01;9.37;;;8.37;;
35961;SDS011;22044;48.298;10.008;2022-11-15T10:14:46;7.93;;;7.10;;
35961;SDS011;22044;48.298;10.008;2022-11-15T10:20:47;7.30;;;6.57;;
35961;SDS011;22044;48.298;10.008;2022-11-15T10:23:35;8.93;;;7.50;;
35961;SDS011;22044;48.298;10.008;2022-11-15T10:26:21;9.00;;;7.97;;
35961;SDS011;22044;48.298;10.008;2022-11-15T10:29:08;11.40;;;8.93;;
35961;SDS011;22044;48.298;10.008;2022-11-15T10:31:54;13.73;;;11.27;;
35961;SDS011;22044;48.298;10.008;2022-11-15T10:34:40;9.30;;;7.87;;
35961;SDS011;22044;48.298;10.008;2022-11-15T10:37:29;8.37;;;7.43;;
35961;SDS011;22044;48.298;10.008;2022-11-15T10:40:18;10.73;;;9.43;;
35961;SDS011;22044;48.298;10.008;2022-11-15T10:43:12;10.97;;;9.70;;
35961;SDS011;22044;48.298;10.008;2022-11-15T10:46:01;7.90;;;7.10;;
35961;SDS011;22044;48.298;10.008;2022-11-15T10:49:11;8.40;;;7.33;;
35961;SDS011;22044;48.298;10.008;2022-11-15T10:51:59;9.50;;;6.87;;
35961;SDS011;22044;48.298;10.008;2022-11-15T10:54:47;7.87;;;6.13;;
35961;SDS011;22044;48.298;10.008;2022-11-15T10:57:37;7.60;;;6.47;;
35961;SDS011;22044;48.298;10.008;2022-11-15T11:00:27;8.07;;;6.80;;
35961;SDS011;22044;48.298;10.008;2022-11-15T11:03:24;7.03;;;6.33;;
35961;SDS011;22044;48.298;10.008;2022-11-15T11:06:14;8.33;;;5.70;;
35961;SDS011;22044;48.298;10.008;2022-11-15T11:09:02;7.40;;;6.60;;
35961;SDS011;22044;48.298;10.008;2022-11-15T11:11:51;7.70;;;6.40;;
35961;SDS011;22044;48.298;10.008;2022-11-15T11:14:38;7.30;;;6.30;;
35961;SDS011;22044;48.298;10.008;2022-11-15T11:17:28;7.50;;;6.70;;
35961;SDS011;22044;48.298;10.008;2022-11-15T11:20:21;9.00;;;6.50;;
35961;SDS011;22044;48.298;10.008;2022-11-15T11:23:25;6.63;;;5.90;;
35961;SDS011;22044;48.298;10.008;2022-11-15T11:26:35;7.97;;;6.30;;
35961;SDS011;22044;48.298;10.008;2022-11-15T11:29:30;7.87;;;6.10;;
35961;SDS011;22044;48.298;10.008;2022-11-15T11:32:30;7.70;;;6.77;;
35961;SDS011;22044;48.298;10.008;2022-11-15T11:35:27;8.23;;;7.37;;
35961;SDS011;22044;48.298;10.008;2022-11-15T11:38:22;12.50;;;7.20;;
35961;SDS011;22044;48.298;10.008;2022-11-15T11:41:23;10.83;;;7.70;;
35961;SDS011;22044;48.298;10.008;2022-11-15T11:44:24;10.57;;;8.10;;
35961;SDS011;22044;48.298;10.008;2022-11-15T11:47:18;46.23;;;25.63;;
35961;SDS011;22044;48.298;10.008;2022-11-15T11:50:10;16.27;;;9.80;;
35961;SDS011;22044;48.298;10.008;2022-11-15T11:52:59;10.17;;;8.10;;
35961;SDS011;22044;48.298;10.008;2022-11-15T11:55:51;9.13;;;7.47;;
35961;SDS011;22044;48.298;10.008;2022-11-15T11:58:40;9.97;;;7.67;;
35961;SDS011;22044;48.298;10.008;2022-11-15T12:01:29;10.40;;;6.90;;
35961;SDS011;22044;48.298;10.008;2022-11-15T12:04:20;8.63;;;7.03;;
35961;SDS011;22044;48.298;10.008;2022-11-15T12:07:15;9.00;;;6.60;;
35961;SDS011;22044;48.298;10.008;2022-11-15T12:10:05;8.60;;;6.13;;
35961;SDS011;22044;48.298;10.008;2022-11-15T12:13:02;9.57;;;6.53;;
35961;SDS011;22044;48.298;10.008;2022-11-15T12:15:53;7.97;;;6.23;;
35961;SDS011;22044;48.298;10.008;2022-11-15T12:18:46;8.27;;;7.03;;
35961;SDS011;22044;48.298;10.008;2022-11-15T12:21:36;9.70;;;7.33;;
35961;SDS011;22044;48.298;10.008;2022-11-15T12:24:28;7.60;;;6.50;;
35961;SDS011;22044;48.298;10.008;2022-11-15T12:27:20;9.03;;;6.90;;
35961;SDS011;22044;48.298;10.008;2022-11-15T12:30:14;12.00;;;7.97;;
35961;SDS011;22044;48.298;10.008;2022-11-15T12:33:02;8.27;;;7.07;;
35961;SDS011;22044;48.298;10.008;2022-11-15T12:35:56;10.97;;;9.00;;
35961;SDS011;22044;48.298;10.008;2022-11-15T12:38:53;11.40;;;8.10;;
35961;SDS011;22044;48.298;10.008;2022-11-15T12:41:41;9.47;;;8.13;;
35961;SDS011;22044;48.298;10.008;2022-11-15T12:47:44;9.20;;;8.13;;
35961;SDS011;22044;48.298;10.008;2022-11-15T12:53:41;9.03;;;8.03;;
35961;SDS011;22044;48.298;10.008;2022-11-15T12:56:28;10.73;;;8.37;;
35961;SDS011;22044;48.298;10.008;2022-11-15T12:59:38;12.07;;;8.70;;
35961;SDS011;22044;48.298;10.008;2022-11-15T13:02:33;10.50;;;8.13;;
35961;SDS011;22044;48.298;10.008;2022-11-15T13:08:43;10.47;;;8.07;;
35961;SDS011;22044;48.298;10.008;2022-11-15T13:11:49;12.53;;;8.43;;
35961;SDS011;22044;48.298;10.008;2022-11-15T13:14:48;12.37;;;9.33;;
35961;SDS011;22044;48.298;10.008;2022-11-15T13:17:36;12.97;;;9.00;;
35961;SDS011;22044;48.298;10.008;2022-11-15T13:20:25;8.80;;;7.90;;
35961;SDS011;22044;48.298;10.008;2022-11-15T13:23:13;9.37;;;8.00;;
35961;SDS011;22044;48.298;10.008;2022-11-15T13:26:08;10.23;;;8.43;;
35961;SDS011;22044;48.298;10.008;2022-11-15T13:29:01;11.43;;;8.37;;
35961;SDS011;22044;48.298;10.008;2022-11-15T13:31:47;12.60;;;8.60;;
35961;SDS011;22044;48.298;10.008;2022-11-15T13:34:33;9.17;;;8.17;;
35961;SDS011;22044;48.298;10.008;2022-11-15T13:37:27;9.50;;;8.23;;
35961;SDS011;22044;48.298;10.008;2022-11-15T13:40:18;10.23;;;8.27;;
35961;SDS011;22044;48.298;10.008;2022-11-15T13:43:17;10.53;;;7.87;;
35961;SDS011;22044;48.298;10.008;2022-11-15T13:46:15;9.70;;;7.83;;
35961;SDS011;22044;48.298;10.008;2022-11-15T13:49:03;11.53;;;8.43;;
35961;SDS011;22044;48.298;10.008;2022-11-15T13:51:50;9.90;;;8.60;;
35961;SDS011;22044;48.298;10.008;2022-11-15T13:54:39;9.57;;;8.60;;
35961;SDS011;22044;48.298;10.008;2022-11-15T13:57:29;10.67;;;8.63;;
35961;SDS011;22044;48.298;10.008;2022-11-15T14:03:30;10.73;;;8.13;;
35961;SDS011;22044;48.298;10.008;2022-11-15T14:06:18;10.03;;;8.33;;
35961;SDS011;22044;48.298;10.008;2022-11-15T14:09:29;11.27;;;8.33;;
35961;SDS011;22044;48.298;10.008;2022-11-15T14:12:22;9.97;;;8.80;;
35961;SDS011;22044;48.298;10.008;2022-11-15T14:15:19;9.30;;;7.20;;
35961;SDS011;22044;48.298;10.008;2022-11-15T14:21:26;9.03;;;7.30;;
35961;SDS011;22044;48.298;10.008;2022-11-15T14:24:15;9.17;;;7.87;;
35961;SDS011;22044;48.298;10.008;2022-11-15T14:27:15;9.63;;;7.47;;
35961;SDS011;22044;48.298;10.008;2022-11-15T14:30:05;11.83;;;7.70;;
35961;SDS011;22044;48.298;10.008;2022-11-15T14:32:57;10.87;;;7.53;;
35961;SDS011;22044;48.298;10.008;2022-11-15T14:35:44;10.07;;;7.70;;
35961;SDS011;22044;48.298;10.008;2022-11-15T14:38:29;11.33;;;8.70;;
35961;SDS011;22044;48.298;10.008;2022-11-15T14:41:19;10.37;;;8.37;;
35961;SDS011;22044;48.298;10.008;2022-11-15T14:44:06;9.20;;;7.73;;
35961;SDS011;22044;48.298;10.008;2022-11-15T14:46:55;10.57;;;7.73;;
35961;SDS011;22044;48.298;10.008;2022-11-15T14:49:41;10.53;;;7.67;;
35961;SDS011;22044;48.298;10.008;2022-11-15T14:52:28;8.70;;;7.80;;
35961;SDS011;22044;48.298;10.008;2022-11-15T14:55:18;10.70;;;7.43;;
35961;SDS011;22044;48.298;10.008;2022-11-15T14:58:07;11.77;;;7.20;;
35961;SDS011;22044;48.298;10.008;2022-11-15T15:00:53;9.70;;;7.37;;
35961;SDS011;22044;48.298;10.008;2022-11-15T15:03:38;8.30;;;6.80;;
35961;SDS011;22044;48.298;10.008;2022-11-15T15:06:24;10.90;;;6.70;;
35961;SDS011;22044;48.298;10.008;2022-11-15T15:09:11;8.30;;;7.10;;
35961;SDS011;22044;48.298;10.008;2022-11-15T15:11:57;12.67;;;7.73;;
35961;SDS011;22044;48.298;10.008;2022-11-15T15:14:43;8.70;;;6.93;;
35961;SDS011;22044;48.298;10.008;2022-11-15T15:17:29;8.50;;;6.30;;
35961;SDS011;22044;48.298;10.008;2022-11-15T15:20:15;8.50;;;6.53;;
35961;SDS011;22044;48.298;10.008;2022-11-15T15:23:00;7.47;;;6.13;;
35961;SDS011;22044;48.298;10.008;2022-11-15T15:25:47;7.43;;;6.53;;
35961;SDS011;22044;48.298;10.008;2022-11-15T15:28:33;8.03;;;6.30;;
35961;SDS011;22044;48.298;10.008;2022-11-15T15:31:20;7.37;;;6.40;;
35961;SDS011;22044;48.298;10.008;2022-11-15T15:34:06;7.57;;;5.73;;
35961;SDS011;22044;48.298;10.008;2022-11-15T15:37:05;9.63;;;6.03;;
35961;SDS011;22044;48.298;10.008;2022-11-15T15:39:52;12.07;;;6.80;;
35961;SDS011;22044;48.298;10.008;2022-11-15T15:42:40;7.70;;;6.80;;
35961;SDS011;22044;48.298;10.008;2022-11-15T15:45:26;8.97;;;6.73;;
35961;SDS011;22044;48.298;10.008;2022-11-15T15:48:13;6.27;;;5.63;;
35961;SDS011;22044;48.298;10.008;2022-11-15T15:51:00;8.73;;;6.80;;
35961;SDS011;22044;48.298;10.008;2022-11-15T15:53:46;9.20;;;7.00;;
35961;SDS011;22044;48.298;10.008;2022-11-15T15:56:32;9.33;;;6.70;;
35961;SDS011;22044;48.298;10.008;2022-11-15T15:59:19;7.57;;;5.67;;
35961;SDS011;22044;48.298;10.008;2022-11-15T16:02:04;7.67;;;5.30;;
35961;SDS011;22044;48.298;10.008;2022-11-15T16:04:50;6.60;;;4.50;;
35961;SDS011;22044;48.298;10.008;2022-11-15T16:07:36;5.80;;;4.80;;
35961;SDS011;22044;48.298;10.008;2022-11-15T16:10:23;6.10;;;4.97;;
35961;SDS011;22044;48.298;10.008;2022-11-15T16:13:10;7.50;;;4.93;;
35961;SDS011;22044;48.298;10.008;2022-11-15T16:15:57;6.37;;;4.90;;
35961;SDS011;22044;48.298;10.008;2022-11-15T16:18:43;6.57;;;5.07;;
35961;SDS011;22044;48.298;10.008;2022-11-15T16:21:28;8.73;;;5.57;;
35961;SDS011;22044;48.298;10.008;2022-11-15T16:24:14;6.57;;;5.10;;
35961;SDS011;22044;48.298;10.008;2022-11-15T16:26:59;8.80;;;4.90;;
35961;SDS011;22044;48.298;10.008;2022-11-15T16:29:46;8.43;;;6.10;;
35961;SDS011;22044;48.298;10.008;2022-11-15T16:32:33;7.90;;;5.07;;
35961;SDS011;22044;48.298;10.008;2022-11-15T16:35:19;6.90;;;4.87;;
35961;SDS011;22044;48.298;10.008;2022-11-15T16:38:04;6.00;;;5.03;;
35961;SDS011;22044;48.298;10.008;2022-11-15T16:40:50;8.37;;;6.00;;
35961;SDS011;22044;48.298;10.008;2022-11-15T16:43:35;9.77;;;5.60;;
35961;SDS011;22044;48.298;10.008;2022-11-15T16:46:22;6.23;;;5.47;;
35961;SDS011;22044;48.298;10.008;2022-11-15T16:49:12;7.40;;;5.47;;
35961;SDS011;22044;48.298;10.008;2022-11-15T16:51:58;10.93;;;8.53;;
35961;SDS011;22044;48.298;10.008;2022-11-15T16:54:43;10.93;;;8.27;;
35961;SDS011;22044;48.298;10.008;2022-11-15T16:57:29;15.47;;;8.87;;
35961;SDS011;22044;48.298;10.008;2022-11-15T17:00:15;12.00;;;9.83;;
35961;SDS011;22044;48.298;10.008;2022-11-15T17:03:02;11.67;;;9.57;;
35961;SDS011;22044;48.298;10.008;2022-11-15T17:05:49;15.43;;;10.43;;
35961;SDS011;22044;48.298;10.008;2022-11-15T17:08:34;26.57;;;20.13;;
35961;SDS011;22044;48.298;10.008;2022-11-15T17:11:20;27.43;;;23.77;;
35961;SDS011;22044;48.298;10.008;2022-11-15T17:14:06;26.10;;;22.93;;
35961;SDS011;22044;48.298;10.008;2022-11-15T17:16:52;21.50;;;17.10;;
35961;SDS011;22044;48.298;10.008;2022-11-15T17:19:37;17.27;;;15.30;;
35961;SDS011;22044;48.298;10.008;2022-11-15T17:22:24;17.47;;;12.80;;
35961;SDS011;22044;48.298;10.008;2022-11-15T17:25:10;16.13;;;12.90;;
35961;SDS011;22044;48.298;10.008;2022-11-15T17:27:55;14.50;;;11.50;;
35961;SDS011;22044;48.298;10.008;2022-11-15T17:30:42;8.17;;;5.53;;
35961;SDS011;22044;48.298;10.008;2022-11-15T17:33:28;6.90;;;5.83;;
35961;SDS011;22044;48.298;10.008;2022-11-15T17:36:15;5.87;;;5.13;;
35961;SDS011;22044;48.298;10.008;2022-11-15T17:39:02;5.30;;;4.80;;
35961;SDS011;22044;48.298;10.008;2022-11-15T17:41:48;6.33;;;4.83;;
35961;SDS011;22044;48.298;10.008;2022-11-15T17:44:34;5.87;;;5.07;;
35961;SDS011;22044;48.298;10.008;2022-11-15T17:47:19;7.67;;;5.73;;
35961;SDS011;22044;48.298;10.008;2022-11-15T17:50:05;6.80;;;5.90;;
35961;SDS011;22044;48.298;10.008;2022-11-15T17:52:52;7.20;;;5.73;;
35961;SDS011;22044;48.298;10.008;2022-11-15T17:55:39;6.10;;;5.40;;
35961;SDS011;22044;48.298;10.008;2022-11-15T17:58:24;7.73;;;5.40;;
35961;SDS011;22044;48.298;10.008;2022-11-15T18:01:13;8.97;;;5.53;;
35961;SDS011;22044;48.298;10.008;2022-11-15T18:04:01;6.93;;;5.13;;
35961;SDS011;22044;48.298;10.008;2022-11-15T18:06:48;9.07;;;5.80;;